sensor_id;sensor_type;location;lat;lon;timestamp;P1;durP1;ratioP1;P2;durP2;ratioP2
54517;SDS011;40423;53.176;6.002;2023-04-16T00:00:57;72.47;;;28.08;;
54517;SDS011;40423;53.176;6.002;2023-04-16T00:03:23;80.53;;;29.90;;
54517;SDS011;40423;53.176;6.002;2023-04-16T00:05:49;78.78;;;28.75;;
54517;SDS011;40423;53.176;6.002;2023-04-16T00:08:15;65.78;;;25.98;;
54517;SDS011;40423;53.176;6.002;2023-04-16T00:10:41;69.60;;;26.95;;
54517;SDS011;40423;53.176;6.002;2023-04-16T00:13:07;77.03;;;28.13;;
54517;SDS011;40423;53.176;6.002;2023-04-16T00:15:32;75.05;;;27.67;;
54517;SDS011;40423;53.176;6.002;2023-04-16T00:18:01;72.28;;;27.42;;
54517;SDS011;40423;53.176;6.002;2023-04-16T00:20:27;75.28;;;28.77;;
54517;SDS011;40423;53.176;6.002;2023-04-16T00:22:52;70.05;;;26.00;;
54517;SDS011;40423;53.176;6.002;2023-04-16T00:25:18;66.00;;;26.30;;
54517;SDS011;40423;53.176;6.002;2023-04-16T00:27:44;67.88;;;26.98;;
54517;SDS011;40423;53.176;6.002;2023-04-16T00:30:12;67.47;;;26.50;;
54517;SDS011;40423;53.176;6.002;2023-04-16T00:32:39;71.70;;;28.02;;
54517;SDS011;40423;53.176;6.002;2023-04-16T00:35:04;70.40;;;28.15;;
54517;SDS011;40423;53.176;6.002;2023-04-16T00:37:30;69.72;;;27.65;;
54517;SDS011;40423;53.176;6.002;2023-04-16T00:39:56;63.58;;;24.75;;
54517;SDS011;40423;53.176;6.002;2023-04-16T00:42:22;67.05;;;26.58;;
54517;SDS011;40423;53.176;6.002;2023-04-16T00:44:48;68.10;;;26.40;;
54517;SDS011;40423;53.176;6.002;2023-04-16T00:47:13;72.80;;;28.33;;
54517;SDS011;40423;53.176;6.002;2023-04-16T00:49:39;66.43;;;26.90;;
54517;SDS011;40423;53.176;6.002;2023-04-16T00:52:05;62.42;;;24.98;;
54517;SDS011;40423;53.176;6.002;2023-04-16T00:54:31;57.25;;;24.50;;
54517;SDS011;40423;53.176;6.002;2023-04-16T00:56:58;72.65;;;27.48;;
54517;SDS011;40423;53.176;6.002;2023-04-16T00:59:24;54.15;;;25.52;;
54517;SDS011;40423;53.176;6.002;2023-04-16T01:01:50;64.40;;;27.55;;
54517;SDS011;40423;53.176;6.002;2023-04-16T01:04:16;59.65;;;26.35;;
54517;SDS011;40423;53.176;6.002;2023-04-16T01:06:42;57.58;;;26.38;;
54517;SDS011;40423;53.176;6.002;2023-04-16T01:09:08;60.60;;;26.70;;
54517;SDS011;40423;53.176;6.002;2023-04-16T01:11:35;56.70;;;25.05;;
54517;SDS011;40423;53.176;6.002;2023-04-16T01:14:02;61.95;;;24.98;;
54517;SDS011;40423;53.176;6.002;2023-04-16T01:16:28;58.35;;;26.20;;
54517;SDS011;40423;53.176;6.002;2023-04-16T01:18:53;49.95;;;25.23;;
54517;SDS011;40423;53.176;6.002;2023-04-16T01:21:19;57.22;;;25.95;;
54517;SDS011;40423;53.176;6.002;2023-04-16T01:23:45;66.28;;;27.73;;
54517;SDS011;40423;53.176;6.002;2023-04-16T01:26:11;59.53;;;25.13;;
54517;SDS011;40423;53.176;6.002;2023-04-16T01:28:37;61.47;;;26.60;;
54517;SDS011;40423;53.176;6.002;2023-04-16T01:31:02;56.63;;;26.83;;
54517;SDS011;40423;53.176;6.002;2023-04-16T01:33:28;60.15;;;27.25;;
54517;SDS011;40423;53.176;6.002;2023-04-16T01:35:54;54.20;;;26.13;;
54517;SDS011;40423;53.176;6.002;2023-04-16T01:38:19;50.67;;;25.48;;
54517;SDS011;40423;53.176;6.002;2023-04-16T01:40:45;55.72;;;26.33;;
54517;SDS011;40423;53.176;6.002;2023-04-16T01:43:11;52.70;;;25.83;;
54517;SDS011;40423;53.176;6.002;2023-04-16T01:45:36;58.90;;;25.50;;
54517;SDS011;40423;53.176;6.002;2023-04-16T01:48:02;54.55;;;25.38;;
54517;SDS011;40423;53.176;6.002;2023-04-16T01:50:28;54.10;;;25.85;;
54517;SDS011;40423;53.176;6.002;2023-04-16T01:52:55;67.22;;;27.30;;
54517;SDS011;40423;53.176;6.002;2023-04-16T01:55:20;61.25;;;27.17;;
54517;SDS011;40423;53.176;6.002;2023-04-16T01:57:46;71.07;;;27.88;;
54517;SDS011;40423;53.176;6.002;2023-04-16T02:00:15;54.60;;;26.55;;
54517;SDS011;40423;53.176;6.002;2023-04-16T02:02:40;53.53;;;24.45;;
54517;SDS011;40423;53.176;6.002;2023-04-16T02:05:09;61.92;;;26.27;;
54517;SDS011;40423;53.176;6.002;2023-04-16T02:07:35;55.78;;;25.70;;
54517;SDS011;40423;53.176;6.002;2023-04-16T02:10:00;56.63;;;25.17;;
54517;SDS011;40423;53.176;6.002;2023-04-16T02:12:26;58.00;;;25.08;;
54517;SDS011;40423;53.176;6.002;2023-04-16T02:14:52;59.30;;;24.42;;
54517;SDS011;40423;53.176;6.002;2023-04-16T02:17:20;60.88;;;27.42;;
54517;SDS011;40423;53.176;6.002;2023-04-16T02:19:46;47.47;;;25.20;;
54517;SDS011;40423;53.176;6.002;2023-04-16T02:22:12;48.53;;;23.30;;
54517;SDS011;40423;53.176;6.002;2023-04-16T02:24:38;59.92;;;25.55;;
54517;SDS011;40423;53.176;6.002;2023-04-16T02:27:06;56.78;;;25.42;;
54517;SDS011;40423;53.176;6.002;2023-04-16T02:29:32;59.35;;;25.10;;
54517;SDS011;40423;53.176;6.002;2023-04-16T02:31:57;63.05;;;25.80;;
54517;SDS011;40423;53.176;6.002;2023-04-16T02:34:23;69.72;;;27.67;;
54517;SDS011;40423;53.176;6.002;2023-04-16T02:36:49;67.43;;;25.98;;
54517;SDS011;40423;53.176;6.002;2023-04-16T02:39:15;62.17;;;26.55;;
54517;SDS011;40423;53.176;6.002;2023-04-16T02:41:41;64.38;;;26.65;;
54517;SDS011;40423;53.176;6.002;2023-04-16T02:44:06;62.05;;;27.73;;
54517;SDS011;40423;53.176;6.002;2023-04-16T02:46:35;63.42;;;28.85;;
54517;SDS011;40423;53.176;6.002;2023-04-16T02:49:00;63.47;;;27.35;;
54517;SDS011;40423;53.176;6.002;2023-04-16T02:51:26;85.65;;;32.83;;
54517;SDS011;40423;53.176;6.002;2023-04-16T02:53:53;81.88;;;33.97;;
54517;SDS011;40423;53.176;6.002;2023-04-16T02:56:18;78.45;;;30.27;;
54517;SDS011;40423;53.176;6.002;2023-04-16T02:58:44;81.75;;;31.15;;
54517;SDS011;40423;53.176;6.002;2023-04-16T03:01:10;78.63;;;31.55;;
54517;SDS011;40423;53.176;6.002;2023-04-16T03:03:35;75.65;;;30.85;;
54517;SDS011;40423;53.176;6.002;2023-04-16T03:06:01;75.93;;;31.48;;
54517;SDS011;40423;53.176;6.002;2023-04-16T03:08:27;77.22;;;28.52;;
54517;SDS011;40423;53.176;6.002;2023-04-16T03:10:52;91.82;;;32.72;;
54517;SDS011;40423;53.176;6.002;2023-04-16T03:13:18;71.28;;;29.00;;
54517;SDS011;40423;53.176;6.002;2023-04-16T03:15:48;90.43;;;33.00;;
54517;SDS011;40423;53.176;6.002;2023-04-16T03:18:14;87.30;;;32.75;;
54517;SDS011;40423;53.176;6.002;2023-04-16T03:20:40;82.07;;;31.55;;
54517;SDS011;40423;53.176;6.002;2023-04-16T03:23:05;72.70;;;31.45;;
54517;SDS011;40423;53.176;6.002;2023-04-16T03:25:31;79.82;;;32.42;;
54517;SDS011;40423;53.176;6.002;2023-04-16T03:27:57;90.35;;;33.58;;
54517;SDS011;40423;53.176;6.002;2023-04-16T03:30:23;93.68;;;32.95;;
54517;SDS011;40423;53.176;6.002;2023-04-16T03:32:48;103.20;;;33.95;;
54517;SDS011;40423;53.176;6.002;2023-04-16T03:35:14;84.10;;;32.53;;
54517;SDS011;40423;53.176;6.002;2023-04-16T03:37:40;77.18;;;30.92;;
54517;SDS011;40423;53.176;6.002;2023-04-16T03:40:05;90.15;;;33.95;;
54517;SDS011;40423;53.176;6.002;2023-04-16T03:42:32;81.00;;;32.70;;
54517;SDS011;40423;53.176;6.002;2023-04-16T03:45:01;77.93;;;29.98;;
54517;SDS011;40423;53.176;6.002;2023-04-16T03:47:26;71.85;;;28.77;;
54517;SDS011;40423;53.176;6.002;2023-04-16T03:49:52;65.32;;;25.75;;
54517;SDS011;40423;53.176;6.002;2023-04-16T03:52:18;64.43;;;24.77;;
54517;SDS011;40423;53.176;6.002;2023-04-16T03:54:43;59.17;;;23.67;;
54517;SDS011;40423;53.176;6.002;2023-04-16T03:57:12;59.50;;;24.70;;
54517;SDS011;40423;53.176;6.002;2023-04-16T03:59:38;72.57;;;27.02;;
54517;SDS011;40423;53.176;6.002;2023-04-16T04:02:03;71.20;;;27.83;;
54517;SDS011;40423;53.176;6.002;2023-04-16T04:04:29;90.53;;;30.48;;
54517;SDS011;40423;53.176;6.002;2023-04-16T04:06:55;78.53;;;29.02;;
54517;SDS011;40423;53.176;6.002;2023-04-16T04:09:20;86.45;;;29.67;;
54517;SDS011;40423;53.176;6.002;2023-04-16T04:11:49;88.55;;;29.77;;
54517;SDS011;40423;53.176;6.002;2023-04-16T04:14:15;93.43;;;30.35;;
54517;SDS011;40423;53.176;6.002;2023-04-16T04:16:41;79.50;;;28.13;;
54517;SDS011;40423;53.176;6.002;2023-04-16T04:19:06;76.32;;;28.70;;
54517;SDS011;40423;53.176;6.002;2023-04-16T04:21:32;69.75;;;27.35;;
54517;SDS011;40423;53.176;6.002;2023-04-16T04:23:58;85.05;;;29.05;;
54517;SDS011;40423;53.176;6.002;2023-04-16T04:26:23;83.68;;;29.10;;
54517;SDS011;40423;53.176;6.002;2023-04-16T04:28:49;79.32;;;30.60;;
54517;SDS011;40423;53.176;6.002;2023-04-16T04:31:18;75.40;;;26.60;;
54517;SDS011;40423;53.176;6.002;2023-04-16T04:33:44;63.97;;;26.58;;
54517;SDS011;40423;53.176;6.002;2023-04-16T04:36:12;79.03;;;29.38;;
54517;SDS011;40423;53.176;6.002;2023-04-16T04:38:38;76.18;;;27.27;;
54517;SDS011;40423;53.176;6.002;2023-04-16T04:41:03;87.07;;;29.73;;
54517;SDS011;40423;53.176;6.002;2023-04-16T04:43:29;79.45;;;26.60;;
54517;SDS011;40423;53.176;6.002;2023-04-16T04:45:55;82.85;;;29.13;;
54517;SDS011;40423;53.176;6.002;2023-04-16T04:48:21;75.60;;;25.65;;
54517;SDS011;40423;53.176;6.002;2023-04-16T04:50:50;79.55;;;25.40;;
54517;SDS011;40423;53.176;6.002;2023-04-16T04:53:16;81.05;;;27.63;;
54517;SDS011;40423;53.176;6.002;2023-04-16T04:55:42;78.70;;;25.80;;
54517;SDS011;40423;53.176;6.002;2023-04-16T04:58:08;73.40;;;25.20;;
54517;SDS011;40423;53.176;6.002;2023-04-16T05:00:36;90.50;;;28.50;;
54517;SDS011;40423;53.176;6.002;2023-04-16T05:03:03;72.22;;;27.27;;
54517;SDS011;40423;53.176;6.002;2023-04-16T05:05:30;81.32;;;28.55;;
54517;SDS011;40423;53.176;6.002;2023-04-16T05:07:56;86.97;;;29.73;;
54517;SDS011;40423;53.176;6.002;2023-04-16T05:10:21;86.90;;;28.67;;
54517;SDS011;40423;53.176;6.002;2023-04-16T05:12:47;79.72;;;27.50;;
54517;SDS011;40423;53.176;6.002;2023-04-16T05:15:13;78.40;;;26.85;;
54517;SDS011;40423;53.176;6.002;2023-04-16T05:17:41;77.50;;;26.63;;
54517;SDS011;40423;53.176;6.002;2023-04-16T05:20:10;97.00;;;31.70;;
54517;SDS011;40423;53.176;6.002;2023-04-16T05:22:35;89.82;;;30.10;;
54517;SDS011;40423;53.176;6.002;2023-04-16T05:25:01;90.72;;;31.10;;
54517;SDS011;40423;53.176;6.002;2023-04-16T05:27:27;86.95;;;31.15;;
54517;SDS011;40423;53.176;6.002;2023-04-16T05:29:53;82.10;;;29.95;;
54517;SDS011;40423;53.176;6.002;2023-04-16T05:32:19;79.38;;;29.48;;
54517;SDS011;40423;53.176;6.002;2023-04-16T05:34:45;88.15;;;29.25;;
54517;SDS011;40423;53.176;6.002;2023-04-16T05:37:10;81.10;;;26.23;;
54517;SDS011;40423;53.176;6.002;2023-04-16T05:39:36;91.85;;;29.10;;
54517;SDS011;40423;53.176;6.002;2023-04-16T05:42:04;85.03;;;28.17;;
54517;SDS011;40423;53.176;6.002;2023-04-16T05:44:30;74.80;;;26.80;;
54517;SDS011;40423;53.176;6.002;2023-04-16T05:46:55;68.70;;;24.98;;
54517;SDS011;40423;53.176;6.002;2023-04-16T05:49:21;69.80;;;25.17;;
54517;SDS011;40423;53.176;6.002;2023-04-16T05:51:47;70.70;;;24.13;;
54517;SDS011;40423;53.176;6.002;2023-04-16T05:54:13;71.20;;;23.90;;
54517;SDS011;40423;53.176;6.002;2023-04-16T05:56:42;72.78;;;25.48;;
54517;SDS011;40423;53.176;6.002;2023-04-16T05:59:07;75.60;;;23.85;;
54517;SDS011;40423;53.176;6.002;2023-04-16T06:01:33;68.55;;;25.08;;
54517;SDS011;40423;53.176;6.002;2023-04-16T06:03:59;80.60;;;25.52;;
54517;SDS011;40423;53.176;6.002;2023-04-16T06:06:27;64.97;;;25.35;;
54517;SDS011;40423;53.176;6.002;2023-04-16T06:08:53;81.43;;;27.58;;
54517;SDS011;40423;53.176;6.002;2023-04-16T06:11:19;81.80;;;24.38;;
54517;SDS011;40423;53.176;6.002;2023-04-16T06:13:44;72.60;;;26.58;;
54517;SDS011;40423;53.176;6.002;2023-04-16T06:16:10;71.75;;;26.05;;
54517;SDS011;40423;53.176;6.002;2023-04-16T06:18:36;77.22;;;24.88;;
54517;SDS011;40423;53.176;6.002;2023-04-16T06:21:02;72.60;;;22.98;;
54517;SDS011;40423;53.176;6.002;2023-04-16T06:23:28;71.10;;;24.17;;
54517;SDS011;40423;53.176;6.002;2023-04-16T06:25:53;64.10;;;22.63;;
54517;SDS011;40423;53.176;6.002;2023-04-16T06:28:20;62.15;;;22.23;;
54517;SDS011;40423;53.176;6.002;2023-04-16T06:30:46;59.60;;;23.50;;
54517;SDS011;40423;53.176;6.002;2023-04-16T06:33:18;58.13;;;21.83;;
54517;SDS011;40423;53.176;6.002;2023-04-16T06:35:43;57.17;;;21.17;;
54517;SDS011;40423;53.176;6.002;2023-04-16T06:38:09;60.80;;;23.50;;
54517;SDS011;40423;53.176;6.002;2023-04-16T06:40:35;63.50;;;20.83;;
54517;SDS011;40423;53.176;6.002;2023-04-16T06:43:01;54.30;;;21.25;;
54517;SDS011;40423;53.176;6.002;2023-04-16T06:45:27;61.45;;;21.92;;
54517;SDS011;40423;53.176;6.002;2023-04-16T06:47:53;57.15;;;20.92;;
54517;SDS011;40423;53.176;6.002;2023-04-16T06:50:18;59.45;;;21.65;;
54517;SDS011;40423;53.176;6.002;2023-04-16T06:52:45;68.35;;;22.50;;
54517;SDS011;40423;53.176;6.002;2023-04-16T06:55:10;62.40;;;21.95;;
54517;SDS011;40423;53.176;6.002;2023-04-16T06:57:36;59.88;;;22.77;;
54517;SDS011;40423;53.176;6.002;2023-04-16T07:00:05;61.35;;;20.98;;
54517;SDS011;40423;53.176;6.002;2023-04-16T07:02:32;60.83;;;21.48;;
54517;SDS011;40423;53.176;6.002;2023-04-16T07:04:57;58.80;;;20.52;;
54517;SDS011;40423;53.176;6.002;2023-04-16T07:07:23;54.13;;;19.55;;
54517;SDS011;40423;53.176;6.002;2023-04-16T07:09:49;54.92;;;20.77;;
54517;SDS011;40423;53.176;6.002;2023-04-16T07:12:14;66.53;;;20.38;;
54517;SDS011;40423;53.176;6.002;2023-04-16T07:14:40;57.65;;;19.75;;
54517;SDS011;40423;53.176;6.002;2023-04-16T07:17:06;60.38;;;20.85;;
54517;SDS011;40423;53.176;6.002;2023-04-16T07:19:32;69.32;;;21.83;;
54517;SDS011;40423;53.176;6.002;2023-04-16T07:22:00;61.30;;;19.80;;
54517;SDS011;40423;53.176;6.002;2023-04-16T07:24:29;52.97;;;19.08;;
54517;SDS011;40423;53.176;6.002;2023-04-16T07:26:56;44.72;;;19.25;;
54517;SDS011;40423;53.176;6.002;2023-04-16T07:29:22;44.22;;;19.38;;
54517;SDS011;40423;53.176;6.002;2023-04-16T07:31:50;46.75;;;19.38;;
54517;SDS011;40423;53.176;6.002;2023-04-16T07:34:16;43.55;;;20.27;;
54517;SDS011;40423;53.176;6.002;2023-04-16T07:36:41;47.00;;;20.55;;
54517;SDS011;40423;53.176;6.002;2023-04-16T07:39:07;49.70;;;19.80;;
54517;SDS011;40423;53.176;6.002;2023-04-16T07:41:34;51.92;;;21.77;;
54517;SDS011;40423;53.176;6.002;2023-04-16T07:44:00;51.78;;;19.83;;
54517;SDS011;40423;53.176;6.002;2023-04-16T07:46:26;50.70;;;19.42;;
54517;SDS011;40423;53.176;6.002;2023-04-16T07:48:51;52.80;;;18.70;;
54517;SDS011;40423;53.176;6.002;2023-04-16T07:51:17;47.15;;;19.75;;
54517;SDS011;40423;53.176;6.002;2023-04-16T07:53:43;47.80;;;17.38;;
54517;SDS011;40423;53.176;6.002;2023-04-16T07:56:09;45.05;;;19.17;;
54517;SDS011;40423;53.176;6.002;2023-04-16T07:58:34;45.45;;;19.65;;
54517;SDS011;40423;53.176;6.002;2023-04-16T08:01:03;39.33;;;16.63;;
54517;SDS011;40423;53.176;6.002;2023-04-16T08:03:29;54.30;;;18.45;;
54517;SDS011;40423;53.176;6.002;2023-04-16T08:05:55;47.42;;;19.48;;
54517;SDS011;40423;53.176;6.002;2023-04-16T08:08:23;51.00;;;18.83;;
54517;SDS011;40423;53.176;6.002;2023-04-16T08:10:49;47.95;;;20.25;;
54517;SDS011;40423;53.176;6.002;2023-04-16T08:13:22;51.25;;;18.58;;
54517;SDS011;40423;53.176;6.002;2023-04-16T08:15:48;60.25;;;20.27;;
54517;SDS011;40423;53.176;6.002;2023-04-16T08:18:14;56.53;;;21.42;;
54517;SDS011;40423;53.176;6.002;2023-04-16T08:20:40;57.67;;;21.77;;
54517;SDS011;40423;53.176;6.002;2023-04-16T08:23:06;50.80;;;19.65;;
54517;SDS011;40423;53.176;6.002;2023-04-16T08:25:32;49.83;;;18.83;;
54517;SDS011;40423;53.176;6.002;2023-04-16T08:27:58;43.30;;;18.73;;
54517;SDS011;40423;53.176;6.002;2023-04-16T08:30:23;42.67;;;17.17;;
54517;SDS011;40423;53.176;6.002;2023-04-16T08:32:49;43.53;;;18.27;;
54517;SDS011;40423;53.176;6.002;2023-04-16T08:35:15;51.40;;;19.38;;
54517;SDS011;40423;53.176;6.002;2023-04-16T08:37:41;45.42;;;17.58;;
54517;SDS011;40423;53.176;6.002;2023-04-16T08:40:07;40.10;;;17.65;;
54517;SDS011;40423;53.176;6.002;2023-04-16T08:42:33;42.72;;;17.58;;
54517;SDS011;40423;53.176;6.002;2023-04-16T08:45:06;50.17;;;19.50;;
54517;SDS011;40423;53.176;6.002;2023-04-16T08:47:47;53.22;;;19.85;;
54517;SDS011;40423;53.176;6.002;2023-04-16T08:50:15;45.50;;;17.85;;
54517;SDS011;40423;53.176;6.002;2023-04-16T08:52:44;40.53;;;18.58;;
54517;SDS011;40423;53.176;6.002;2023-04-16T08:55:20;53.10;;;19.90;;
54517;SDS011;40423;53.176;6.002;2023-04-16T08:57:49;49.88;;;19.88;;
54517;SDS011;40423;53.176;6.002;2023-04-16T09:00:22;46.47;;;18.65;;
54517;SDS011;40423;53.176;6.002;2023-04-16T09:02:48;42.58;;;18.10;;
54517;SDS011;40423;53.176;6.002;2023-04-16T09:05:20;42.25;;;18.00;;
54517;SDS011;40423;53.176;6.002;2023-04-16T09:07:49;44.13;;;19.55;;
54517;SDS011;40423;53.176;6.002;2023-04-16T09:10:17;39.38;;;18.45;;
54517;SDS011;40423;53.176;6.002;2023-04-16T09:12:44;43.35;;;19.42;;
54517;SDS011;40423;53.176;6.002;2023-04-16T09:15:10;45.47;;;19.05;;
54517;SDS011;40423;53.176;6.002;2023-04-16T09:17:37;44.53;;;19.80;;
54517;SDS011;40423;53.176;6.002;2023-04-16T09:20:09;44.97;;;20.33;;
54517;SDS011;40423;53.176;6.002;2023-04-16T09:22:36;44.10;;;21.10;;
54517;SDS011;40423;53.176;6.002;2023-04-16T09:25:04;44.63;;;18.85;;
54517;SDS011;40423;53.176;6.002;2023-04-16T09:27:31;52.05;;;19.98;;
54517;SDS011;40423;53.176;6.002;2023-04-16T09:29:57;45.50;;;19.95;;
54517;SDS011;40423;53.176;6.002;2023-04-16T09:32:26;46.22;;;22.52;;
54517;SDS011;40423;53.176;6.002;2023-04-16T09:34:56;51.13;;;22.80;;
54517;SDS011;40423;53.176;6.002;2023-04-16T09:37:24;39.17;;;20.23;;
54517;SDS011;40423;53.176;6.002;2023-04-16T09:39:55;40.50;;;19.05;;
54517;SDS011;40423;53.176;6.002;2023-04-16T09:42:25;48.33;;;21.40;;
54517;SDS011;40423;53.176;6.002;2023-04-16T09:44:53;50.50;;;21.58;;
54517;SDS011;40423;53.176;6.002;2023-04-16T09:47:19;44.88;;;19.95;;
54517;SDS011;40423;53.176;6.002;2023-04-16T09:49:50;48.15;;;19.90;;
54517;SDS011;40423;53.176;6.002;2023-04-16T09:52:18;47.88;;;21.88;;
54517;SDS011;40423;53.176;6.002;2023-04-16T09:54:47;42.88;;;19.55;;
54517;SDS011;40423;53.176;6.002;2023-04-16T09:57:20;48.58;;;20.95;;
54517;SDS011;40423;53.176;6.002;2023-04-16T09:59:53;54.30;;;21.25;;
54517;SDS011;40423;53.176;6.002;2023-04-16T10:02:28;40.67;;;19.75;;
54517;SDS011;40423;53.176;6.002;2023-04-16T10:04:57;46.92;;;21.40;;
54517;SDS011;40423;53.176;6.002;2023-04-16T10:07:32;42.53;;;19.88;;
54517;SDS011;40423;53.176;6.002;2023-04-16T10:09:59;49.15;;;21.08;;
54517;SDS011;40423;53.176;6.002;2023-04-16T10:12:25;44.65;;;20.35;;
54517;SDS011;40423;53.176;6.002;2023-04-16T10:14:53;41.03;;;18.40;;
54517;SDS011;40423;53.176;6.002;2023-04-16T10:17:23;44.67;;;20.48;;
54517;SDS011;40423;53.176;6.002;2023-04-16T10:19:49;54.83;;;21.27;;
54517;SDS011;40423;53.176;6.002;2023-04-16T10:22:15;43.38;;;19.40;;
54517;SDS011;40423;53.176;6.002;2023-04-16T10:24:41;42.70;;;18.52;;
54517;SDS011;40423;53.176;6.002;2023-04-16T10:27:07;40.70;;;18.92;;
54517;SDS011;40423;53.176;6.002;2023-04-16T10:29:33;36.80;;;18.13;;
54517;SDS011;40423;53.176;6.002;2023-04-16T10:32:00;37.55;;;18.75;;
54517;SDS011;40423;53.176;6.002;2023-04-16T10:34:26;39.58;;;17.98;;
54517;SDS011;40423;53.176;6.002;2023-04-16T10:36:53;42.97;;;18.35;;
54517;SDS011;40423;53.176;6.002;2023-04-16T10:39:20;47.45;;;20.08;;
54517;SDS011;40423;53.176;6.002;2023-04-16T10:42:05;44.53;;;20.05;;
54517;SDS011;40423;53.176;6.002;2023-04-16T10:44:35;37.63;;;18.75;;
54517;SDS011;40423;53.176;6.002;2023-04-16T10:47:01;36.13;;;18.83;;
54517;SDS011;40423;53.176;6.002;2023-04-16T10:49:33;40.83;;;19.23;;
54517;SDS011;40423;53.176;6.002;2023-04-16T10:52:00;40.42;;;18.80;;
54517;SDS011;40423;53.176;6.002;2023-04-16T10:54:41;41.78;;;19.33;;
54517;SDS011;40423;53.176;6.002;2023-04-16T10:57:17;39.28;;;18.45;;
54517;SDS011;40423;53.176;6.002;2023-04-16T10:59:44;43.45;;;19.17;;
54517;SDS011;40423;53.176;6.002;2023-04-16T11:02:13;38.10;;;17.90;;
54517;SDS011;40423;53.176;6.002;2023-04-16T11:04:42;50.97;;;20.50;;
54517;SDS011;40423;53.176;6.002;2023-04-16T11:09:42;41.28;;;18.63;;
54517;SDS011;40423;53.176;6.002;2023-04-16T11:12:18;40.08;;;18.27;;
54517;SDS011;40423;53.176;6.002;2023-04-16T11:14:48;36.50;;;17.80;;
54517;SDS011;40423;53.176;6.002;2023-04-16T11:17:16;35.55;;;17.65;;
54517;SDS011;40423;53.176;6.002;2023-04-16T11:19:42;40.92;;;17.92;;
54517;SDS011;40423;53.176;6.002;2023-04-16T11:22:10;31.85;;;18.38;;
54517;SDS011;40423;53.176;6.002;2023-04-16T11:24:37;32.53;;;17.63;;
54517;SDS011;40423;53.176;6.002;2023-04-16T11:27:05;35.20;;;18.58;;
54517;SDS011;40423;53.176;6.002;2023-04-16T11:29:31;41.97;;;20.48;;
54517;SDS011;40423;53.176;6.002;2023-04-16T11:31:57;39.72;;;19.73;;
54517;SDS011;40423;53.176;6.002;2023-04-16T11:34:23;36.60;;;19.10;;
54517;SDS011;40423;53.176;6.002;2023-04-16T11:36:49;36.13;;;18.77;;
54517;SDS011;40423;53.176;6.002;2023-04-16T11:39:16;33.40;;;18.27;;
54517;SDS011;40423;53.176;6.002;2023-04-16T11:41:43;31.70;;;18.67;;
54517;SDS011;40423;53.176;6.002;2023-04-16T11:44:16;46.42;;;20.30;;
54517;SDS011;40423;53.176;6.002;2023-04-16T11:46:42;38.33;;;19.40;;
54517;SDS011;40423;53.176;6.002;2023-04-16T11:49:08;30.90;;;17.90;;
54517;SDS011;40423;53.176;6.002;2023-04-16T11:51:45;28.52;;;16.67;;
54517;SDS011;40423;53.176;6.002;2023-04-16T11:54:23;38.53;;;18.05;;
54517;SDS011;40423;53.176;6.002;2023-04-16T11:56:58;34.63;;;17.02;;
54517;SDS011;40423;53.176;6.002;2023-04-16T11:59:24;32.80;;;17.52;;
54517;SDS011;40423;53.176;6.002;2023-04-16T12:01:51;31.33;;;17.23;;
54517;SDS011;40423;53.176;6.002;2023-04-16T12:04:22;25.23;;;15.88;;
54517;SDS011;40423;53.176;6.002;2023-04-16T12:07:11;29.60;;;17.85;;
54517;SDS011;40423;53.176;6.002;2023-04-16T12:09:39;33.53;;;17.55;;
54517;SDS011;40423;53.176;6.002;2023-04-16T12:12:28;31.55;;;17.60;;
54517;SDS011;40423;53.176;6.002;2023-04-16T12:14:56;28.60;;;17.67;;
54517;SDS011;40423;53.176;6.002;2023-04-16T12:17:23;32.33;;;18.00;;
54517;SDS011;40423;53.176;6.002;2023-04-16T12:19:50;35.47;;;18.02;;
54517;SDS011;40423;53.176;6.002;2023-04-16T12:22:52;34.60;;;18.00;;
54517;SDS011;40423;53.176;6.002;2023-04-16T12:25:16;35.38;;;17.77;;
54517;SDS011;40423;53.176;6.002;2023-04-16T12:27:49;30.38;;;16.95;;
54517;SDS011;40423;53.176;6.002;2023-04-16T12:30:17;33.92;;;18.50;;
54517;SDS011;40423;53.176;6.002;2023-04-16T12:32:48;36.92;;;19.08;;
54517;SDS011;40423;53.176;6.002;2023-04-16T12:35:28;32.83;;;17.80;;
54517;SDS011;40423;53.176;6.002;2023-04-16T12:37:58;28.95;;;17.13;;
54517;SDS011;40423;53.176;6.002;2023-04-16T12:40:24;34.33;;;16.83;;
54517;SDS011;40423;53.176;6.002;2023-04-16T12:42:51;32.50;;;19.50;;
54517;SDS011;40423;53.176;6.002;2023-04-16T12:45:20;33.35;;;18.23;;
54517;SDS011;40423;53.176;6.002;2023-04-16T12:47:46;32.67;;;18.42;;
54517;SDS011;40423;53.176;6.002;2023-04-16T12:50:12;33.33;;;15.50;;
54517;SDS011;40423;53.176;6.002;2023-04-16T12:52:40;31.05;;;18.13;;
54517;SDS011;40423;53.176;6.002;2023-04-16T12:55:06;27.98;;;17.30;;
54517;SDS011;40423;53.176;6.002;2023-04-16T12:57:32;29.13;;;18.33;;
54517;SDS011;40423;53.176;6.002;2023-04-16T12:59:58;32.50;;;18.17;;
54517;SDS011;40423;53.176;6.002;2023-04-16T13:02:24;37.53;;;19.10;;
54517;SDS011;40423;53.176;6.002;2023-04-16T13:04:53;36.67;;;19.20;;
54517;SDS011;40423;53.176;6.002;2023-04-16T13:07:19;32.25;;;17.50;;
54517;SDS011;40423;53.176;6.002;2023-04-16T13:09:45;29.10;;;18.90;;
54517;SDS011;40423;53.176;6.002;2023-04-16T13:12:11;33.47;;;18.33;;
54517;SDS011;40423;53.176;6.002;2023-04-16T13:14:37;31.02;;;16.90;;
54517;SDS011;40423;53.176;6.002;2023-04-16T13:17:03;32.17;;;18.90;;
54517;SDS011;40423;53.176;6.002;2023-04-16T13:19:29;36.85;;;19.80;;
54517;SDS011;40423;53.176;6.002;2023-04-16T13:21:55;35.92;;;16.50;;
54517;SDS011;40423;53.176;6.002;2023-04-16T13:24:25;31.30;;;17.02;;
54517;SDS011;40423;53.176;6.002;2023-04-16T13:26:50;30.65;;;17.25;;
54517;SDS011;40423;53.176;6.002;2023-04-16T13:29:16;26.77;;;15.65;;
54517;SDS011;40423;53.176;6.002;2023-04-16T13:31:43;27.80;;;16.92;;
54517;SDS011;40423;53.176;6.002;2023-04-16T13:34:09;26.80;;;15.18;;
54517;SDS011;40423;53.176;6.002;2023-04-16T13:36:35;21.13;;;15.95;;
54517;SDS011;40423;53.176;6.002;2023-04-16T13:39:01;23.95;;;14.77;;
54517;SDS011;40423;53.176;6.002;2023-04-16T13:41:29;26.15;;;15.38;;
54517;SDS011;40423;53.176;6.002;2023-04-16T13:43:55;25.33;;;14.63;;
54517;SDS011;40423;53.176;6.002;2023-04-16T13:46:21;29.50;;;16.35;;
54517;SDS011;40423;53.176;6.002;2023-04-16T13:48:47;28.10;;;16.67;;
54517;SDS011;40423;53.176;6.002;2023-04-16T13:51:13;26.45;;;15.85;;
54517;SDS011;40423;53.176;6.002;2023-04-16T13:53:39;24.02;;;15.60;;
54517;SDS011;40423;53.176;6.002;2023-04-16T13:56:05;27.52;;;16.30;;
54517;SDS011;40423;53.176;6.002;2023-04-16T13:58:32;26.13;;;16.40;;
54517;SDS011;40423;53.176;6.002;2023-04-16T14:00:58;27.25;;;15.77;;
54517;SDS011;40423;53.176;6.002;2023-04-16T14:03:24;28.50;;;16.50;;
54517;SDS011;40423;53.176;6.002;2023-04-16T14:05:51;28.42;;;16.60;;
54517;SDS011;40423;53.176;6.002;2023-04-16T14:08:17;26.63;;;15.98;;
54517;SDS011;40423;53.176;6.002;2023-04-16T14:10:45;27.60;;;17.00;;
54517;SDS011;40423;53.176;6.002;2023-04-16T14:13:11;27.42;;;17.13;;
54517;SDS011;40423;53.176;6.002;2023-04-16T14:15:37;27.48;;;17.40;;
54517;SDS011;40423;53.176;6.002;2023-04-16T14:18:03;27.02;;;17.63;;
54517;SDS011;40423;53.176;6.002;2023-04-16T14:20:29;33.80;;;17.83;;
54517;SDS011;40423;53.176;6.002;2023-04-16T14:22:55;26.45;;;18.23;;